sensor_id;sensor_type;location;lat;lon;timestamp;P1;durP1;ratioP1;P2;durP2;ratioP2
8622;SDS011;4349;47.552;8.904;2022-08-03T00:00:28;2.60;;;2.50;;
8622;SDS011;4349;47.552;8.904;2022-08-03T00:02:55;2.90;;;2.70;;
8622;SDS011;4349;47.552;8.904;2022-08-03T00:05:24;2.73;;;2.63;;
8622;SDS011;4349;47.552;8.904;2022-08-03T00:07:52;2.93;;;2.73;;
8622;SDS011;4349;47.552;8.904;2022-08-03T00:10:21;2.80;;;2.60;;
8622;SDS011;4349;47.552;8.904;2022-08-03T00:12:48;3.00;;;2.80;;
8622;SDS011;4349;47.552;8.904;2022-08-03T00:15:16;2.70;;;2.60;;
8622;SDS011;4349;47.552;8.904;2022-08-03T00:17:44;2.70;;;2.60;;
8622;SDS011;4349;47.552;8.904;2022-08-03T00:20:18;2.87;;;2.77;;
8622;SDS011;4349;47.552;8.904;2022-08-03T00:22:47;3.13;;;3.03;;
8622;SDS011;4349;47.552;8.904;2022-08-03T00:25:15;3.20;;;3.00;;
8622;SDS011;4349;47.552;8.904;2022-08-03T00:27:43;4.63;;;3.90;;
8622;SDS011;4349;47.552;8.904;2022-08-03T00:30:13;3.50;;;3.30;;
8622;SDS011;4349;47.552;8.904;2022-08-03T00:32:42;3.00;;;2.90;;
8622;SDS011;4349;47.552;8.904;2022-08-03T00:35:11;3.17;;;3.07;;
8622;SDS011;4349;47.552;8.904;2022-08-03T00:38:00;3.27;;;3.17;;
8622;SDS011;4349;47.552;8.904;2022-08-03T00:40:27;3.40;;;3.13;;
8622;SDS011;4349;47.552;8.904;2022-08-03T00:42:56;3.53;;;3.33;;
8622;SDS011;4349;47.552;8.904;2022-08-03T00:45:24;3.43;;;3.17;;
8622;SDS011;4349;47.552;8.904;2022-08-03T00:47:52;3.50;;;3.30;;
8622;SDS011;4349;47.552;8.904;2022-08-03T00:50:21;3.73;;;3.53;;
8622;SDS011;4349;47.552;8.904;2022-08-03T00:52:49;3.47;;;3.27;;
8622;SDS011;4349;47.552;8.904;2022-08-03T00:55:19;3.40;;;3.20;;
8622;SDS011;4349;47.552;8.904;2022-08-03T00:57:47;3.77;;;3.57;;
8622;SDS011;4349;47.552;8.904;2022-08-03T01:00:16;3.50;;;3.40;;
8622;SDS011;4349;47.552;8.904;2022-08-03T01:02:48;3.73;;;3.50;;
8622;SDS011;4349;47.552;8.904;2022-08-03T01:05:15;3.47;;;3.27;;
8622;SDS011;4349;47.552;8.904;2022-08-03T01:07:46;3.50;;;3.30;;
8622;SDS011;4349;47.552;8.904;2022-08-03T01:10:16;3.50;;;3.30;;
8622;SDS011;4349;47.552;8.904;2022-08-03T01:12:54;3.53;;;3.03;;
8622;SDS011;4349;47.552;8.904;2022-08-03T01:15:24;3.57;;;3.03;;
8622;SDS011;4349;47.552;8.904;2022-08-03T01:17:54;3.00;;;2.90;;
8622;SDS011;4349;47.552;8.904;2022-08-03T01:20:23;3.37;;;3.17;;
8622;SDS011;4349;47.552;8.904;2022-08-03T01:23:09;2.80;;;2.70;;
8622;SDS011;4349;47.552;8.904;2022-08-03T01:25:47;3.53;;;3.33;;
8622;SDS011;4349;47.552;8.904;2022-08-03T01:28:24;3.10;;;2.90;;
8622;SDS011;4349;47.552;8.904;2022-08-03T01:30:58;3.33;;;3.13;;
8622;SDS011;4349;47.552;8.904;2022-08-03T01:33:34;3.43;;;3.30;;
8622;SDS011;4349;47.552;8.904;2022-08-03T01:36:03;3.03;;;2.93;;
8622;SDS011;4349;47.552;8.904;2022-08-03T01:38:33;3.00;;;2.90;;
8622;SDS011;4349;47.552;8.904;2022-08-03T01:41:01;3.23;;;3.13;;
8622;SDS011;4349;47.552;8.904;2022-08-03T01:43:30;3.03;;;2.93;;
8622;SDS011;4349;47.552;8.904;2022-08-03T01:46:19;3.13;;;3.03;;
8622;SDS011;4349;47.552;8.904;2022-08-03T01:48:48;3.57;;;3.23;;
8622;SDS011;4349;47.552;8.904;2022-08-03T01:51:16;3.70;;;3.50;;
8622;SDS011;4349;47.552;8.904;2022-08-03T01:53:44;3.53;;;3.33;;
8622;SDS011;4349;47.552;8.904;2022-08-03T01:56:13;3.37;;;3.17;;
8622;SDS011;4349;47.552;8.904;2022-08-03T01:58:42;3.40;;;3.30;;
8622;SDS011;4349;47.552;8.904;2022-08-03T02:01:11;3.80;;;3.60;;
8622;SDS011;4349;47.552;8.904;2022-08-03T02:03:41;3.33;;;3.23;;
8622;SDS011;4349;47.552;8.904;2022-08-03T02:06:26;3.37;;;3.07;;
8622;SDS011;4349;47.552;8.904;2022-08-03T02:09:14;3.30;;;3.20;;
8622;SDS011;4349;47.552;8.904;2022-08-03T02:11:42;3.60;;;3.40;;
8622;SDS011;4349;47.552;8.904;2022-08-03T02:14:11;3.87;;;3.57;;
8622;SDS011;4349;47.552;8.904;2022-08-03T02:16:39;3.90;;;3.70;;
8622;SDS011;4349;47.552;8.904;2022-08-03T02:19:08;3.60;;;3.40;;
8622;SDS011;4349;47.552;8.904;2022-08-03T02:21:37;3.30;;;3.20;;
8622;SDS011;4349;47.552;8.904;2022-08-03T02:24:25;3.67;;;3.27;;
8622;SDS011;4349;47.552;8.904;2022-08-03T02:26:52;3.43;;;3.27;;
8622;SDS011;4349;47.552;8.904;2022-08-03T02:29:22;3.30;;;3.13;;
8622;SDS011;4349;47.552;8.904;2022-08-03T02:32:07;3.20;;;3.10;;
8622;SDS011;4349;47.552;8.904;2022-08-03T02:34:37;3.57;;;3.40;;
8622;SDS011;4349;47.552;8.904;2022-08-03T02:37:06;3.37;;;3.23;;
8622;SDS011;4349;47.552;8.904;2022-08-03T02:39:34;3.37;;;3.27;;
8622;SDS011;4349;47.552;8.904;2022-08-03T02:42:03;3.33;;;3.10;;
8622;SDS011;4349;47.552;8.904;2022-08-03T02:44:32;3.40;;;3.30;;
8622;SDS011;4349;47.552;8.904;2022-08-03T02:47:01;3.23;;;3.13;;
8622;SDS011;4349;47.552;8.904;2022-08-03T02:49:29;3.50;;;3.30;;
8622;SDS011;4349;47.552;8.904;2022-08-03T02:52:18;5.70;;;3.50;;
8622;SDS011;4349;47.552;8.904;2022-08-03T02:54:46;3.07;;;2.97;;
8622;SDS011;4349;47.552;8.904;2022-08-03T02:57:15;4.43;;;4.13;;
8622;SDS011;4349;47.552;8.904;2022-08-03T02:59:44;3.57;;;3.37;;
8622;SDS011;4349;47.552;8.904;2022-08-03T03:02:13;3.17;;;3.07;;
8622;SDS011;4349;47.552;8.904;2022-08-03T03:04:42;3.70;;;3.50;;
8622;SDS011;4349;47.552;8.904;2022-08-03T03:07:31;3.60;;;3.40;;
8622;SDS011;4349;47.552;8.904;2022-08-03T03:10:17;3.53;;;3.33;;
8622;SDS011;4349;47.552;8.904;2022-08-03T03:12:46;3.57;;;3.37;;
8622;SDS011;4349;47.552;8.904;2022-08-03T03:15:14;3.37;;;3.27;;
8622;SDS011;4349;47.552;8.904;2022-08-03T03:17:42;3.80;;;3.50;;
8622;SDS011;4349;47.552;8.904;2022-08-03T03:20:10;3.80;;;3.60;;
8622;SDS011;4349;47.552;8.904;2022-08-03T03:22:39;3.90;;;3.60;;
8622;SDS011;4349;47.552;8.904;2022-08-03T03:25:10;3.47;;;3.27;;
8622;SDS011;4349;47.552;8.904;2022-08-03T03:27:38;3.43;;;3.23;;
8622;SDS011;4349;47.552;8.904;2022-08-03T03:30:06;3.87;;;3.57;;
8622;SDS011;4349;47.552;8.904;2022-08-03T03:32:34;3.37;;;3.27;;
8622;SDS011;4349;47.552;8.904;2022-08-03T03:35:03;2.97;;;2.77;;
8622;SDS011;4349;47.552;8.904;2022-08-03T03:37:31;3.60;;;3.40;;
8622;SDS011;4349;47.552;8.904;2022-08-03T03:40:00;3.80;;;3.50;;
8622;SDS011;4349;47.552;8.904;2022-08-03T03:42:28;3.00;;;2.90;;
8622;SDS011;4349;47.552;8.904;2022-08-03T03:44:56;3.60;;;3.40;;
8622;SDS011;4349;47.552;8.904;2022-08-03T03:47:24;3.60;;;3.40;;
8622;SDS011;4349;47.552;8.904;2022-08-03T03:49:58;3.23;;;3.13;;
8622;SDS011;4349;47.552;8.904;2022-08-03T03:52:25;3.13;;;3.03;;
8622;SDS011;4349;47.552;8.904;2022-08-03T03:54:53;3.10;;;3.00;;
8622;SDS011;4349;47.552;8.904;2022-08-03T03:57:27;3.80;;;3.60;;
8622;SDS011;4349;47.552;8.904;2022-08-03T03:59:55;3.53;;;3.40;;
8622;SDS011;4349;47.552;8.904;2022-08-03T04:02:23;3.70;;;3.50;;
8622;SDS011;4349;47.552;8.904;2022-08-03T04:04:50;3.57;;;3.37;;
8622;SDS011;4349;47.552;8.904;2022-08-03T04:07:37;4.10;;;3.80;;
8622;SDS011;4349;47.552;8.904;2022-08-03T04:10:24;3.60;;;3.40;;
8622;SDS011;4349;47.552;8.904;2022-08-03T04:13:13;3.73;;;3.53;;
8622;SDS011;4349;47.552;8.904;2022-08-03T04:15:42;4.20;;;3.90;;
8622;SDS011;4349;47.552;8.904;2022-08-03T04:18:10;3.57;;;3.40;;
8622;SDS011;4349;47.552;8.904;2022-08-03T04:20:39;3.60;;;3.40;;
8622;SDS011;4349;47.552;8.904;2022-08-03T04:23:13;3.50;;;3.20;;
8622;SDS011;4349;47.552;8.904;2022-08-03T04:25:42;3.77;;;3.57;;
8622;SDS011;4349;47.552;8.904;2022-08-03T04:28:10;3.67;;;3.40;;
8622;SDS011;4349;47.552;8.904;2022-08-03T04:30:59;3.27;;;3.10;;
8622;SDS011;4349;47.552;8.904;2022-08-03T04:33:28;3.50;;;3.30;;
8622;SDS011;4349;47.552;8.904;2022-08-03T04:35:58;3.53;;;3.43;;
8622;SDS011;4349;47.552;8.904;2022-08-03T04:38:28;3.67;;;3.47;;
8622;SDS011;4349;47.552;8.904;2022-08-03T04:40:56;3.80;;;3.60;;
8622;SDS011;4349;47.552;8.904;2022-08-03T04:43:25;3.70;;;3.50;;
8622;SDS011;4349;47.552;8.904;2022-08-03T04:45:54;3.53;;;3.43;;
8622;SDS011;4349;47.552;8.904;2022-08-03T04:48:23;3.80;;;3.60;;
8622;SDS011;4349;47.552;8.904;2022-08-03T04:50:51;3.17;;;3.00;;
8622;SDS011;4349;47.552;8.904;2022-08-03T04:53:19;3.60;;;3.40;;
8622;SDS011;4349;47.552;8.904;2022-08-03T04:55:48;3.50;;;3.40;;
8622;SDS011;4349;47.552;8.904;2022-08-03T04:58:16;3.30;;;3.20;;
8622;SDS011;4349;47.552;8.904;2022-08-03T05:00:43;3.70;;;3.50;;
8622;SDS011;4349;47.552;8.904;2022-08-03T05:03:15;3.77;;;3.57;;
8622;SDS011;4349;47.552;8.904;2022-08-03T05:05:51;3.77;;;3.57;;
8622;SDS011;4349;47.552;8.904;2022-08-03T05:08:27;3.77;;;3.47;;
8622;SDS011;4349;47.552;8.904;2022-08-03T05:10:57;3.67;;;3.57;;
8622;SDS011;4349;47.552;8.904;2022-08-03T05:13:24;3.80;;;3.60;;
8622;SDS011;4349;47.552;8.904;2022-08-03T05:15:52;4.17;;;3.97;;
8622;SDS011;4349;47.552;8.904;2022-08-03T05:18:20;3.97;;;3.77;;
8622;SDS011;4349;47.552;8.904;2022-08-03T05:20:47;4.07;;;3.83;;
8622;SDS011;4349;47.552;8.904;2022-08-03T05:23:16;4.10;;;3.60;;
8622;SDS011;4349;47.552;8.904;2022-08-03T05:25:44;4.80;;;4.50;;
8622;SDS011;4349;47.552;8.904;2022-08-03T05:28:15;4.57;;;4.27;;
8622;SDS011;4349;47.552;8.904;2022-08-03T05:30:43;4.00;;;3.70;;
8622;SDS011;4349;47.552;8.904;2022-08-03T05:33:11;3.93;;;3.70;;
8622;SDS011;4349;47.552;8.904;2022-08-03T05:35:39;4.27;;;4.07;;
8622;SDS011;4349;47.552;8.904;2022-08-03T05:38:28;3.87;;;3.67;;
8622;SDS011;4349;47.552;8.904;2022-08-03T05:41:00;4.33;;;4.10;;
8622;SDS011;4349;47.552;8.904;2022-08-03T05:43:48;4.70;;;4.30;;
8622;SDS011;4349;47.552;8.904;2022-08-03T05:46:15;4.20;;;4.00;;
8622;SDS011;4349;47.552;8.904;2022-08-03T05:48:43;3.90;;;3.70;;
8622;SDS011;4349;47.552;8.904;2022-08-03T05:51:11;4.13;;;3.83;;
8622;SDS011;4349;47.552;8.904;2022-08-03T05:53:40;4.70;;;4.30;;
8622;SDS011;4349;47.552;8.904;2022-08-03T05:56:08;4.00;;;3.80;;
8622;SDS011;4349;47.552;8.904;2022-08-03T05:58:41;3.80;;;3.50;;
8622;SDS011;4349;47.552;8.904;2022-08-03T06:01:09;3.80;;;3.70;;
8622;SDS011;4349;47.552;8.904;2022-08-03T06:03:37;5.47;;;3.87;;
8622;SDS011;4349;47.552;8.904;2022-08-03T06:06:05;4.07;;;3.77;;
8622;SDS011;4349;47.552;8.904;2022-08-03T06:08:32;4.13;;;3.93;;
8622;SDS011;4349;47.552;8.904;2022-08-03T06:11:02;4.67;;;4.27;;
8622;SDS011;4349;47.552;8.904;2022-08-03T06:13:30;4.60;;;4.30;;
8622;SDS011;4349;47.552;8.904;2022-08-03T06:15:57;3.73;;;3.53;;
8622;SDS011;4349;47.552;8.904;2022-08-03T06:18:25;4.33;;;4.13;;
8622;SDS011;4349;47.552;8.904;2022-08-03T06:20:53;4.83;;;4.53;;
8622;SDS011;4349;47.552;8.904;2022-08-03T06:23:20;5.23;;;4.83;;
8622;SDS011;4349;47.552;8.904;2022-08-03T06:26:09;4.70;;;4.30;;
8622;SDS011;4349;47.552;8.904;2022-08-03T06:28:39;4.97;;;4.50;;
8622;SDS011;4349;47.552;8.904;2022-08-03T06:31:19;4.90;;;4.50;;
8622;SDS011;4349;47.552;8.904;2022-08-03T06:33:47;4.53;;;4.23;;
8622;SDS011;4349;47.552;8.904;2022-08-03T06:36:35;6.40;;;5.80;;
8622;SDS011;4349;47.552;8.904;2022-08-03T06:39:03;4.50;;;4.20;;
8622;SDS011;4349;47.552;8.904;2022-08-03T06:41:34;4.60;;;4.30;;
8622;SDS011;4349;47.552;8.904;2022-08-03T06:44:06;4.80;;;4.40;;
8622;SDS011;4349;47.552;8.904;2022-08-03T06:46:35;4.30;;;4.00;;
8622;SDS011;4349;47.552;8.904;2022-08-03T06:49:03;4.87;;;4.57;;
8622;SDS011;4349;47.552;8.904;2022-08-03T06:51:31;4.43;;;4.13;;
8622;SDS011;4349;47.552;8.904;2022-08-03T06:54:18;4.80;;;4.50;;
8622;SDS011;4349;47.552;8.904;2022-08-03T06:56:48;4.63;;;4.23;;
8622;SDS011;4349;47.552;8.904;2022-08-03T06:59:16;4.67;;;4.37;;
8622;SDS011;4349;47.552;8.904;2022-08-03T07:02:04;3.97;;;3.77;;
8622;SDS011;4349;47.552;8.904;2022-08-03T07:04:31;4.27;;;4.07;;
8622;SDS011;4349;47.552;8.904;2022-08-03T07:06:59;4.57;;;4.20;;
8622;SDS011;4349;47.552;8.904;2022-08-03T07:09:27;5.60;;;5.20;;
8622;SDS011;4349;47.552;8.904;2022-08-03T07:11:56;5.30;;;4.80;;
8622;SDS011;4349;47.552;8.904;2022-08-03T07:14:24;5.20;;;4.80;;
8622;SDS011;4349;47.552;8.904;2022-08-03T07:16:51;4.50;;;4.30;;
8622;SDS011;4349;47.552;8.904;2022-08-03T07:19:19;5.07;;;4.67;;
8622;SDS011;4349;47.552;8.904;2022-08-03T07:21:46;4.63;;;4.33;;
8622;SDS011;4349;47.552;8.904;2022-08-03T07:24:14;4.70;;;4.40;;
8622;SDS011;4349;47.552;8.904;2022-08-03T07:26:41;4.30;;;4.00;;
8622;SDS011;4349;47.552;8.904;2022-08-03T07:29:11;4.10;;;3.90;;
8622;SDS011;4349;47.552;8.904;2022-08-03T07:31:40;4.13;;;3.93;;
8622;SDS011;4349;47.552;8.904;2022-08-03T07:34:08;4.67;;;4.37;;
8622;SDS011;4349;47.552;8.904;2022-08-03T07:36:36;4.53;;;4.23;;
8622;SDS011;4349;47.552;8.904;2022-08-03T07:39:03;4.23;;;4.03;;
8622;SDS011;4349;47.552;8.904;2022-08-03T07:41:43;4.23;;;3.97;;
8622;SDS011;4349;47.552;8.904;2022-08-03T07:44:12;3.97;;;3.77;;
8622;SDS011;4349;47.552;8.904;2022-08-03T07:46:40;3.73;;;3.53;;
8622;SDS011;4349;47.552;8.904;2022-08-03T07:49:07;3.30;;;3.10;;
8622;SDS011;4349;47.552;8.904;2022-08-03T07:51:35;3.30;;;3.20;;
8622;SDS011;4349;47.552;8.904;2022-08-03T07:54:03;3.70;;;3.50;;
8622;SDS011;4349;47.552;8.904;2022-08-03T07:56:31;14.10;;;4.03;;
8622;SDS011;4349;47.552;8.904;2022-08-03T07:58:59;4.10;;;3.70;;
8622;SDS011;4349;47.552;8.904;2022-08-03T08:01:29;3.73;;;3.53;;
8622;SDS011;4349;47.552;8.904;2022-08-03T08:03:59;3.60;;;3.50;;
8622;SDS011;4349;47.552;8.904;2022-08-03T08:06:26;3.90;;;3.70;;
8622;SDS011;4349;47.552;8.904;2022-08-03T08:08:54;3.97;;;3.77;;
8622;SDS011;4349;47.552;8.904;2022-08-03T08:11:26;3.93;;;3.73;;
8622;SDS011;4349;47.552;8.904;2022-08-03T08:13:54;3.57;;;3.47;;
8622;SDS011;4349;47.552;8.904;2022-08-03T08:16:22;3.95;;;3.75;;
8622;SDS011;4349;47.552;8.904;2022-08-03T08:18:51;3.70;;;3.50;;
8622;SDS011;4349;47.552;8.904;2022-08-03T08:21:18;3.50;;;3.40;;
8622;SDS011;4349;47.552;8.904;2022-08-03T08:23:46;3.50;;;3.40;;
8622;SDS011;4349;47.552;8.904;2022-08-03T08:26:23;3.43;;;3.27;;
8622;SDS011;4349;47.552;8.904;2022-08-03T08:28:50;3.60;;;3.50;;
8622;SDS011;4349;47.552;8.904;2022-08-03T08:31:18;3.72;;;3.38;;
8622;SDS011;4349;47.552;8.904;2022-08-03T08:33:46;3.42;;;3.22;;
8622;SDS011;4349;47.552;8.904;2022-08-03T08:36:31;3.97;;;3.77;;
8622;SDS011;4349;47.552;8.904;2022-08-03T08:38:58;3.35;;;3.20;;
8622;SDS011;4349;47.552;8.904;2022-08-03T08:41:26;3.33;;;3.17;;
8622;SDS011;4349;47.552;8.904;2022-08-03T08:43:57;3.72;;;3.53;;
8622;SDS011;4349;47.552;8.904;2022-08-03T08:46:25;3.15;;;3.03;;
8622;SDS011;4349;47.552;8.904;2022-08-03T08:48:53;3.85;;;3.55;;
8622;SDS011;4349;47.552;8.904;2022-08-03T08:51:21;3.40;;;3.30;;
8622;SDS011;4349;47.552;8.904;2022-08-03T08:54:14;3.00;;;2.90;;
8622;SDS011;4349;47.552;8.904;2022-08-03T08:56:44;3.55;;;3.35;;
8622;SDS011;4349;47.552;8.904;2022-08-03T08:59:12;3.20;;;3.10;;
8622;SDS011;4349;47.552;8.904;2022-08-03T09:01:40;3.83;;;3.55;;
8622;SDS011;4349;47.552;8.904;2022-08-03T09:04:08;3.42;;;3.33;;
8622;SDS011;4349;47.552;8.904;2022-08-03T09:06:35;4.00;;;3.70;;
8622;SDS011;4349;47.552;8.904;2022-08-03T09:09:04;3.58;;;3.47;;
8622;SDS011;4349;47.552;8.904;2022-08-03T09:11:33;3.55;;;3.40;;
8622;SDS011;4349;47.552;8.904;2022-08-03T09:14:22;3.55;;;3.35;;
8622;SDS011;4349;47.552;8.904;2022-08-03T09:17:09;3.70;;;3.50;;
8622;SDS011;4349;47.552;8.904;2022-08-03T09:19:42;3.60;;;3.35;;
8622;SDS011;4349;47.552;8.904;2022-08-03T09:22:29;3.45;;;3.22;;
8622;SDS011;4349;47.552;8.904;2022-08-03T09:25:00;3.20;;;3.10;;
8622;SDS011;4349;47.552;8.904;2022-08-03T09:27:49;3.50;;;3.30;;
8622;SDS011;4349;47.552;8.904;2022-08-03T09:30:17;3.08;;;2.90;;
8622;SDS011;4349;47.552;8.904;2022-08-03T09:33:00;2.95;;;2.85;;
8622;SDS011;4349;47.552;8.904;2022-08-03T09:35:28;3.78;;;3.50;;
8622;SDS011;4349;47.552;8.904;2022-08-03T09:38:16;3.30;;;3.20;;
8622;SDS011;4349;47.552;8.904;2022-08-03T09:40:44;3.00;;;2.90;;
8622;SDS011;4349;47.552;8.904;2022-08-03T09:43:16;3.00;;;2.90;;
8622;SDS011;4349;47.552;8.904;2022-08-03T09:45:44;3.00;;;2.90;;
8622;SDS011;4349;47.552;8.904;2022-08-03T09:48:24;2.97;;;2.83;;
8622;SDS011;4349;47.552;8.904;2022-08-03T09:50:54;3.65;;;3.45;;
8622;SDS011;4349;47.552;8.904;2022-08-03T09:53:24;3.35;;;3.10;;
8622;SDS011;4349;47.552;8.904;2022-08-03T09:55:52;2.80;;;2.70;;
8622;SDS011;4349;47.552;8.904;2022-08-03T09:58:45;3.00;;;2.80;;
8622;SDS011;4349;47.552;8.904;2022-08-03T10:01:14;3.55;;;3.45;;
8622;SDS011;4349;47.552;8.904;2022-08-03T10:03:56;3.17;;;3.08;;
8622;SDS011;4349;47.552;8.904;2022-08-03T10:06:30;3.33;;;3.13;;
8622;SDS011;4349;47.552;8.904;2022-08-03T10:09:04;3.10;;;3.00;;
8622;SDS011;4349;47.552;8.904;2022-08-03T10:11:33;3.17;;;3.08;;
8622;SDS011;4349;47.552;8.904;2022-08-03T10:14:08;3.60;;;3.38;;
8622;SDS011;4349;47.552;8.904;2022-08-03T10:16:38;2.88;;;2.67;;
8622;SDS011;4349;47.552;8.904;2022-08-03T10:19:07;3.10;;;2.95;;
8622;SDS011;4349;47.552;8.904;2022-08-03T10:21:35;2.90;;;2.80;;
8622;SDS011;4349;47.552;8.904;2022-08-03T10:24:04;2.78;;;2.67;;
8622;SDS011;4349;47.552;8.904;2022-08-03T10:26:32;2.95;;;2.85;;
8622;SDS011;4349;47.552;8.904;2022-08-03T10:29:02;3.20;;;3.10;;
8622;SDS011;4349;47.552;8.904;2022-08-03T10:31:40;3.10;;;3.00;;
8622;SDS011;4349;47.552;8.904;2022-08-03T10:34:24;2.90;;;2.70;;
8622;SDS011;4349;47.552;8.904;2022-08-03T10:36:54;2.83;;;2.72;;
8622;SDS011;4349;47.552;8.904;2022-08-03T10:39:23;2.40;;;2.30;;
8622;SDS011;4349;47.552;8.904;2022-08-03T10:41:53;2.63;;;2.53;;
8622;SDS011;4349;47.552;8.904;2022-08-03T10:44:23;2.60;;;2.50;;
8622;SDS011;4349;47.552;8.904;2022-08-03T10:46:53;2.50;;;2.45;;
8622;SDS011;4349;47.552;8.904;2022-08-03T10:49:21;2.83;;;2.72;;
8622;SDS011;4349;47.552;8.904;2022-08-03T10:52:01;2.60;;;2.50;;
8622;SDS011;4349;47.552;8.904;2022-08-03T10:54:39;2.80;;;2.70;;
8622;SDS011;4349;47.552;8.904;2022-08-03T11:00:26;2.63;;;2.53;;
8622;SDS011;4349;47.552;8.904;2022-08-03T11:05:41;2.50;;;2.40;;
8622;SDS011;4349;47.552;8.904;2022-08-03T11:08:28;2.83;;;2.72;;
8622;SDS011;4349;47.552;8.904;2022-08-03T11:11:00;2.72;;;2.55;;
8622;SDS011;4349;47.552;8.904;2022-08-03T11:13:29;2.70;;;2.60;;
8622;SDS011;4349;47.552;8.904;2022-08-03T11:16:00;2.67;;;2.58;;
8622;SDS011;4349;47.552;8.904;2022-08-03T11:18:33;2.67;;;2.58;;
8622;SDS011;4349;47.552;8.904;2022-08-03T11:21:02;2.53;;;2.42;;
8622;SDS011;4349;47.552;8.904;2022-08-03T11:23:40;2.60;;;2.50;;
8622;SDS011;4349;47.552;8.904;2022-08-03T11:26:28;2.72;;;2.60;;
8622;SDS011;4349;47.552;8.904;2022-08-03T11:29:10;2.63;;;2.42;;
8622;SDS011;4349;47.552;8.904;2022-08-03T11:31:46;2.72;;;2.63;;
8622;SDS011;4349;47.552;8.904;2022-08-03T11:34:16;3.00;;;2.90;;
8622;SDS011;4349;47.552;8.904;2022-08-03T11:39:38;2.90;;;2.80;;
8622;SDS011;4349;47.552;8.904;2022-08-03T11:44:48;2.67;;;2.58;;
8622;SDS011;4349;47.552;8.904;2022-08-03T11:47:16;2.50;;;2.50;;
8622;SDS011;4349;47.552;8.904;2022-08-03T11:49:45;2.90;;;2.80;;
8622;SDS011;4349;47.552;8.904;2022-08-03T11:52:13;2.65;;;2.55;;
8622;SDS011;4349;47.552;8.904;2022-08-03T11:54:42;2.50;;;2.40;;
8622;SDS011;4349;47.552;8.904;2022-08-03T11:57:10;2.38;;;2.38;;
8622;SDS011;4349;47.552;8.904;2022-08-03T11:59:38;2.30;;;2.30;;
8622;SDS011;4349;47.552;8.904;2022-08-03T12:02:06;2.53;;;2.42;;
8622;SDS011;4349;47.552;8.904;2022-08-03T12:04:47;2.65;;;2.55;;
8622;SDS011;4349;47.552;8.904;2022-08-03T12:07:15;2.67;;;2.47;;
8622;SDS011;4349;47.552;8.904;2022-08-03T12:10:08;2.58;;;2.47;;
8622;SDS011;4349;47.552;8.904;2022-08-03T12:12:36;2.63;;;2.60;;
8622;SDS011;4349;47.552;8.904;2022-08-03T12:15:11;2.40;;;2.30;;
8622;SDS011;4349;47.552;8.904;2022-08-03T12:17:39;2.70;;;2.50;;
8622;SDS011;4349;47.552;8.904;2022-08-03T12:20:08;2.55;;;2.42;;
8622;SDS011;4349;47.552;8.904;2022-08-03T12:22:36;2.58;;;2.47;;
8622;SDS011;4349;47.552;8.904;2022-08-03T12:25:04;2.40;;;2.30;;
8622;SDS011;4349;47.552;8.904;2022-08-03T12:27:33;2.40;;;2.30;;
8622;SDS011;4349;47.552;8.904;2022-08-03T12:30:02;2.30;;;2.20;;
8622;SDS011;4349;47.552;8.904;2022-08-03T12:32:30;2.25;;;2.15;;
8622;SDS011;4349;47.552;8.904;2022-08-03T12:34:57;2.70;;;2.50;;
8622;SDS011;4349;47.552;8.904;2022-08-03T12:37:27;2.20;;;2.20;;
8622;SDS011;4349;47.552;8.904;2022-08-03T12:39:56;2.22;;;2.10;;
8622;SDS011;4349;47.552;8.904;2022-08-03T12:42:31;2.40;;;2.30;;
8622;SDS011;4349;47.552;8.904;2022-08-03T12:47:54;2.25;;;2.17;;
8622;SDS011;4349;47.552;8.904;2022-08-03T12:50:22;2.20;;;2.10;;
8622;SDS011;4349;47.552;8.904;2022-08-03T12:52:50;2.35;;;2.25;;
8622;SDS011;4349;47.552;8.904;2022-08-03T12:55:18;2.28;;;2.08;;
8622;SDS011;4349;47.552;8.904;2022-08-03T12:57:46;2.20;;;2.20;;
8622;SDS011;4349;47.552;8.904;2022-08-03T13:00:15;1.92;;;1.85;;
8622;SDS011;4349;47.552;8.904;2022-08-03T13:02:59;2.55;;;2.40;;
8622;SDS011;4349;47.552;8.904;2022-08-03T13:05:47;3.25;;;2.47;;
8622;SDS011;4349;47.552;8.904;2022-08-03T13:08:18;2.30;;;2.20;;
8622;SDS011;4349;47.552;8.904;2022-08-03T13:10:46;2.58;;;2.47;;
8622;SDS011;4349;47.552;8.904;2022-08-03T13:13:13;2.10;;;2.10;;
8622;SDS011;4349;47.552;8.904;2022-08-03T13:15:41;2.45;;;2.35;;
8622;SDS011;4349;47.552;8.904;2022-08-03T13:18:15;2.25;;;2.22;;
8622;SDS011;4349;47.552;8.904;2022-08-03T13:20:43;1.98;;;1.98;;
8622;SDS011;4349;47.552;8.904;2022-08-03T13:23:10;1.90;;;1.90;;
8622;SDS011;4349;47.552;8.904;2022-08-03T13:25:48;2.10;;;2.00;;
8622;SDS011;4349;47.552;8.904;2022-08-03T13:28:21;2.10;;;2.00;;
8622;SDS011;4349;47.552;8.904;2022-08-03T13:30:49;2.08;;;2.08;;
8622;SDS011;4349;47.552;8.904;2022-08-03T13:33:18;2.08;;;2.08;;
8622;SDS011;4349;47.552;8.904;2022-08-03T13:35:46;2.65;;;2.08;;
8622;SDS011;4349;47.552;8.904;2022-08-03T13:38:13;2.25;;;2.20;;
8622;SDS011;4349;47.552;8.904;2022-08-03T13:40:42;2.30;;;2.20;;
8622;SDS011;4349;47.552;8.904;2022-08-03T13:43:14;2.45;;;2.35;;
8622;SDS011;4349;47.552;8.904;2022-08-03T13:45:42;2.35;;;2.25;;
8622;SDS011;4349;47.552;8.904;2022-08-03T13:48:19;2.05;;;2.05;;
8622;SDS011;4349;47.552;8.904;2022-08-03T13:51:03;2.95;;;2.10;;
8622;SDS011;4349;47.552;8.904;2022-08-03T13:53:47;1.83;;;1.83;;
8622;SDS011;4349;47.552;8.904;2022-08-03T13:56:15;1.95;;;1.85;;
8622;SDS011;4349;47.552;8.904;2022-08-03T13:58:42;2.17;;;2.00;;
8622;SDS011;4349;47.552;8.904;2022-08-03T14:01:10;2.50;;;2.40;;
8622;SDS011;4349;47.552;8.904;2022-08-03T14:03:39;2.17;;;2.08;;
8622;SDS011;4349;47.552;8.904;2022-08-03T14:06:07;2.17;;;1.98;;
8622;SDS011;4349;47.552;8.904;2022-08-03T14:08:35;1.95;;;1.95;;
8622;SDS011;4349;47.552;8.904;2022-08-03T14:11:03;2.35;;;2.15;;
8622;SDS011;4349;47.552;8.904;2022-08-03T14:13:30;2.28;;;2.17;;
8622;SDS011;4349;47.552;8.904;2022-08-03T14:15:58;2.20;;;2.10;;
8622;SDS011;4349;47.552;8.904;2022-08-03T14:18:27;2.30;;;2.10;;
8622;SDS011;4349;47.552;8.904;2022-08-03T14:21:01;1.95;;;1.95;;
8622;SDS011;4349;47.552;8.904;2022-08-03T14:23:32;2.15;;;2.13;;
8622;SDS011;4349;47.552;8.904;2022-08-03T14:26:00;2.08;;;1.98;;
8622;SDS011;4349;47.552;8.904;2022-08-03T14:28:28;2.00;;;1.90;;
8622;SDS011;4349;47.552;8.904;2022-08-03T14:30:56;1.80;;;1.80;;
8622;SDS011;4349;47.552;8.904;2022-08-03T14:33:24;2.55;;;2.35;;
8622;SDS011;4349;47.552;8.904;2022-08-03T14:35:53;1.90;;;1.90;;
8622;SDS011;4349;47.552;8.904;2022-08-03T14:38:22;2.13;;;2.03;;
8622;SDS011;4349;47.552;8.904;2022-08-03T14:40:50;2.00;;;1.90;;
8622;SDS011;4349;47.552;8.904;2022-08-03T14:43:18;1.77;;;1.77;;
8622;SDS011;4349;47.552;8.904;2022-08-03T14:45:46;2.20;;;2.10;;
8622;SDS011;4349;47.552;8.904;2022-08-03T14:48:17;2.13;;;2.03;;
8622;SDS011;4349;47.552;8.904;2022-08-03T14:51:05;2.05;;;2.05;;
8622;SDS011;4349;47.552;8.904;2022-08-03T14:53:34;2.08;;;2.00;;
8622;SDS011;4349;47.552;8.904;2022-08-03T14:56:02;2.17;;;2.08;;
8622;SDS011;4349;47.552;8.904;2022-08-03T14:58:35;5.05;;;2.25;;
8622;SDS011;4349;47.552;8.904;2022-08-03T15:01:03;1.80;;;1.80;;
8622;SDS011;4349;47.552;8.904;2022-08-03T15:03:52;1.77;;;1.77;;
8622;SDS011;4349;47.552;8.904;2022-08-03T15:06:20;2.10;;;2.10;;
8622;SDS011;4349;47.552;8.904;2022-08-03T15:08:49;1.90;;;1.80;;
8622;SDS011;4349;47.552;8.904;2022-08-03T15:11:37;1.95;;;1.95;;
8622;SDS011;4349;47.552;8.904;2022-08-03T15:14:04;1.85;;;1.85;;
8622;SDS011;4349;47.552;8.904;2022-08-03T15:16:35;1.70;;;1.70;;
8622;SDS011;4349;47.552;8.904;2022-08-03T15:19:02;1.90;;;1.90;;
8622;SDS011;4349;47.552;8.904;2022-08-03T15:21:50;2.00;;;1.95;;
8622;SDS011;4349;47.552;8.904;2022-08-03T15:24:20;1.88;;;1.80;;
8622;SDS011;4349;47.552;8.904;2022-08-03T15:26:47;1.70;;;1.70;;
8622;SDS011;4349;47.552;8.904;2022-08-03T15:29:15;1.50;;;1.50;;
8622;SDS011;4349;47.552;8.904;2022-08-03T15:32:03;1.95;;;1.85;;
8622;SDS011;4349;47.552;8.904;2022-08-03T15:34:34;2.00;;;2.00;;
8622;SDS011;4349;47.552;8.904;2022-08-03T15:37:02;2.10;;;2.00;;
8622;SDS011;4349;47.552;8.904;2022-08-03T15:39:43;1.65;;;1.65;;
8622;SDS011;4349;47.552;8.904;2022-08-03T15:42:26;1.70;;;1.70;;
8622;SDS011;4349;47.552;8.904;2022-08-03T15:44:53;1.70;;;1.70;;
8622;SDS011;4349;47.552;8.904;2022-08-03T15:47:21;2.78;;;1.70;;
8622;SDS011;4349;47.552;8.904;2022-08-03T15:49:49;1.80;;;1.80;;
8622;SDS011;4349;47.552;8.904;2022-08-03T15:52:16;1.58;;;1.58;;
8622;SDS011;4349;47.552;8.904;2022-08-03T15:54:45;1.70;;;1.70;;